Time;durP1;ratioP1;P1;durP2;ratioP2;P2;SDS_P1;SDS_P2;PMS_P1;PMS_P2;Temp;Humidity;BMP_temperature;BMP_pressure;BME280_temperature;BME280_humidity;BME280_pressure;Samples;Min_cycle;Max_cycle;Signal;HPM_P1;HPM_P2
2021/05/03 00:01:16;;;;;;;5.65;3.85;;;8.60;70.00;;;;;;2371747;53;20986;-68
2021/05/03 00:03:43;;;;;;;6.30;4.40;;;8.60;70.10;;;;;;2371725;53;20942;-67
2021/05/03 00:06:10;;;;;;;5.65;3.70;;;8.60;70.20;;;;;;2462507;52;20923;-69
2021/05/03 00:08:36;;;;;;;4.75;3.05;;;8.60;70.10;;;;;;2335904;54;20945;-66
2021/05/03 00:11:02;;;;;;;4.72;3.33;;;8.50;70.00;;;;;;2366223;53;20926;-67
2021/05/03 00:13:29;;;;;;;5.05;3.47;;;8.50;70.00;;;;;;2368904;53;21739;-66
2021/05/03 00:15:55;;;;;;;5.35;3.70;;;8.50;70.10;;;;;;2371631;53;21435;-68
2021/05/03 00:18:21;;;;;;;6.60;4.05;;;8.50;70.10;;;;;;2372197;53;20986;-67
2021/05/03 00:20:48;;;;;;;5.82;3.87;;;8.50;70.30;;;;;;2370105;53;21052;-67
2021/05/03 00:23:14;;;;;;;6.93;4.30;;;8.40;70.30;;;;;;2349514;53;21045;-68
2021/05/03 00:25:40;;;;;;;5.75;4.20;;;8.50;70.50;;;;;;2624607;52;20942;-65
2021/05/03 00:28:06;;;;;;;6.07;4.03;;;8.40;70.50;;;;;;2573647;52;20927;-66
2021/05/03 00:30:32;;;;;;;6.25;4.43;;;8.40;70.60;;;;;;2346804;53;20934;-65
2021/05/03 00:33:00;;;;;;;6.62;4.20;;;8.40;70.70;;;;;;2621316;52;20978;-68
2021/05/03 00:35:26;;;;;;;6.53;4.10;;;8.40;70.70;;;;;;2371334;53;20927;-68
2021/05/03 00:37:56;;;;;;;7.12;4.10;;;8.40;70.70;;;;;;2361715;53;21731;-66
2021/05/03 00:40:22;;;;;;;6.45;4.00;;;8.40;70.80;;;;;;2335939;54;20986;-66
2021/05/03 00:42:49;;;;;;;7.32;4.57;;;8.40;70.80;;;;;;2371698;53;20918;-69
2021/05/03 00:45:17;;;;;;;6.10;4.15;;;8.40;70.80;;;;;;2618376;52;21693;-66
2021/05/03 00:47:44;;;;;;;6.32;4.28;;;8.40;70.80;;;;;;2332103;54;20979;-65
2021/05/03 00:50:13;;;;;;;6.95;4.62;;;8.40;70.80;;;;;;2370222;53;20946;-66
2021/05/03 00:52:40;;;;;;;6.85;4.45;;;8.40;70.80;;;;;;2624480;52;21017;-68
2021/05/03 00:55:07;;;;;;;6.60;4.65;;;8.40;70.80;;;;;;2371714;53;20933;-66
2021/05/03 00:57:36;;;;;;;8.35;4.85;;;8.40;70.80;;;;;;2372028;53;21049;-67
2021/05/03 01:00:04;;;;;;;7.07;4.60;;;8.40;70.80;;;;;;2358549;53;21535;-66
2021/05/03 01:02:37;;;;;;;6.60;4.53;;;8.40;70.80;;;;;;2363047;53;20931;-66
2021/05/03 01:05:04;;;;;;;7.60;5.32;;;8.40;70.80;;;;;;2343414;54;20940;-65
2021/05/03 01:07:30;;;;;;;7.37;5.28;;;8.40;70.90;;;;;;2369821;53;21041;-67
2021/05/03 01:10:01;;;;;;;7.62;5.05;;;8.40;70.90;;;;;;2348219;53;20970;-67
2021/05/03 01:12:40;;;;;;;7.68;5.07;;;8.40;70.90;;;;;;2331931;54;21729;-65
2021/05/03 01:15:07;;;;;;;7.55;5.10;;;8.40;70.70;;;;;;2340309;54;20949;-67
2021/05/03 01:17:33;;;;;;;6.95;4.57;;;8.40;70.90;;;;;;2369911;53;21573;-66
2021/05/03 01:20:13;;;;;;;6.97;4.68;;;8.30;70.80;;;;;;2362495;53;21550;-66
2021/05/03 01:22:39;;;;;;;6.32;4.57;;;8.30;70.50;;;;;;2369775;53;20974;-66
2021/05/03 01:25:09;;;;;;;6.80;5.05;;;8.30;70.60;;;;;;2369552;53;20942;-66
2021/05/03 01:27:36;;;;;;;8.35;5.60;;;8.30;70.50;;;;;;2369961;53;20922;-68
2021/05/03 01:30:29;;;;;;;8.50;5.30;;;8.30;70.50;;;;;;2621048;52;21006;-66
2021/05/03 01:33:08;;;;;;;7.15;4.72;;;8.30;70.20;;;;;;2369539;53;21426;-67
2021/05/03 01:35:34;;;;;;;7.43;4.85;;;8.30;70.30;;;;;;2369577;53;20930;-68
2021/05/03 01:38:01;;;;;;;7.53;4.85;;;8.20;70.40;;;;;;2365971;53;21008;-67
2021/05/03 01:40:29;;;;;;;7.18;5.05;;;8.30;70.50;;;;;;2365222;53;20906;-67
2021/05/03 01:42:55;;;;;;;7.00;5.10;;;8.20;70.50;;;;;;2360915;53;21007;-65
2021/05/03 01:45:26;;;;;;;8.32;5.15;;;8.20;70.70;;;;;;2347560;53;20964;-69
2021/05/03 01:47:52;;;;;;;8.13;5.28;;;8.20;70.70;;;;;;2354696;53;20961;-67
2021/05/03 01:50:20;;;;;;;7.22;5.28;;;8.20;70.80;;;;;;2501744;52;21030;-69
2021/05/03 01:52:47;;;;;;;8.15;5.50;;;8.20;70.90;;;;;;2340467;54;21043;-67
2021/05/03 01:55:14;;;;;;;7.55;5.25;;;8.20;70.90;;;;;;2609916;52;20942;-68
2021/05/03 01:57:40;;;;;;;7.72;5.30;;;8.10;70.80;;;;;;2369287;53;21025;-66
2021/05/03 02:00:08;;;;;;;7.07;5.15;;;8.10;70.80;;;;;;2363111;53;20934;-68
2021/05/03 02:02:34;;;;;;;8.45;5.53;;;8.10;70.90;;;;;;2369529;53;20967;-69
2021/05/03 02:05:00;;;;;;;7.80;5.37;;;8.10;70.90;;;;;;2360422;53;21592;-66
2021/05/03 02:07:26;;;;;;;7.10;5.32;;;8.10;70.90;;;;;;2453096;53;20985;-66
2021/05/03 02:09:54;;;;;;;9.32;5.20;;;8.10;70.80;;;;;;2613719;52;20965;-68
2021/05/03 02:12:21;;;;;;;7.18;5.00;;;8.10;70.80;;;;;;2346517;53;21482;-67
2021/05/03 02:14:47;;;;;;;8.00;5.53;;;8.10;70.80;;;;;;2359647;52;20937;-67
2021/05/03 02:17:16;;;;;;;7.68;5.75;;;8.10;70.80;;;;;;2370759;53;20934;-68
2021/05/03 02:19:42;;;;;;;7.75;5.12;;;8.10;70.80;;;;;;2602890;52;21277;-69
2021/05/03 02:22:14;;;;;;;7.35;5.18;;;8.10;70.80;;;;;;2576333;52;20984;-68
2021/05/03 02:24:40;;;;;;;7.55;5.30;;;8.10;70.80;;;;;;2622627;52;20942;-66
2021/05/03 02:27:09;;;;;;;9.07;6.65;;;8.10;70.80;;;;;;2345138;54;20944;-67
2021/05/03 02:29:35;;;;;;;9.38;5.82;;;8.10;70.90;;;;;;2355829;53;21042;-68
2021/05/03 02:32:04;;;;;;;9.75;6.00;;;8.10;71.00;;;;;;2362601;53;20964;-68
2021/05/03 02:34:31;;;;;;;8.55;5.93;;;8.10;71.00;;;;;;2435217;53;22048;-67
2021/05/03 02:37:20;;;;;;;9.13;6.15;;;8.00;71.00;;;;;;2311200;55;20956;-65
2021/05/03 02:39:55;;;;;;;8.10;5.40;;;8.00;70.80;;;;;;2590875;52;20944;-67
2021/05/03 02:42:22;;;;;;;8.10;5.80;;;8.10;71.00;;;;;;2361319;53;20989;-67
2021/05/03 02:45:13;;;;;;;7.72;5.57;;;8.00;71.00;;;;;;2369897;53;20962;-68
2021/05/03 02:47:39;;;;;;;7.18;5.00;;;8.00;70.70;;;;;;2358223;53;20936;-66
2021/05/03 02:50:08;;;;;;;9.52;5.35;;;8.00;70.80;;;;;;2352271;53;20971;-66
2021/05/03 02:52:34;;;;;;;7.35;5.15;;;8.00;70.80;;;;;;2440511;52;21464;-66
2021/05/03 02:55:01;;;;;;;7.03;4.87;;;8.00;70.70;;;;;;2354606;53;21993;-68
2021/05/03 02:57:28;;;;;;;9.20;5.50;;;8.00;70.70;;;;;;2361767;53;20990;-67
2021/05/03 02:59:57;;;;;;;8.30;5.72;;;8.00;70.60;;;;;;2351053;53;21037;-68
2021/05/03 03:02:28;;;;;;;9.35;5.90;;;8.00;70.50;;;;;;2349596;53;20986;-68
2021/05/03 03:05:28;;;;;;;7.75;5.55;;;7.90;70.30;;;;;;2362655;53;20946;-67
2021/05/03 03:07:54;;;;;;;8.43;5.28;;;7.90;70.10;;;;;;2343402;53;20923;-68
2021/05/03 03:10:20;;;;;;;7.45;5.15;;;7.90;70.30;;;;;;2612297;52;21875;-66
2021/05/03 03:12:47;;;;;;;7.40;4.85;;;7.90;70.30;;;;;;2358259;53;20930;-67
2021/05/03 03:15:16;;;;;;;7.30;5.12;;;7.90;70.30;;;;;;2370190;53;20989;-66
2021/05/03 03:17:46;;;;;;;8.07;5.35;;;7.80;70.10;;;;;;2614500;52;21965;-66
2021/05/03 03:20:13;;;;;;;7.78;5.10;;;7.80;70.10;;;;;;2369665;53;20942;-66
2021/05/03 03:22:39;;;;;;;7.47;5.12;;;7.80;70.20;;;;;;2352774;53;21065;-69
2021/05/03 03:25:15;;;;;;;7.35;4.87;;;7.80;70.20;;;;;;2332737;55;20977;-65
2021/05/03 03:27:41;;;;;;;7.70;5.10;;;7.70;70.00;;;;;;2331999;54;20937;-66
2021/05/03 03:30:10;;;;;;;7.72;5.57;;;7.70;70.20;;;;;;2339665;54;20980;-68
2021/05/03 03:32:41;;;;;;;7.55;4.93;;;7.70;70.30;;;;;;2353062;53;20952;-65
2021/05/03 03:35:08;;;;;;;8.65;5.62;;;7.70;70.40;;;;;;2341078;54;21083;-67
2021/05/03 03:37:34;;;;;;;7.80;5.15;;;7.70;70.50;;;;;;2343281;54;20950;-68
2021/05/03 03:40:00;;;;;;;8.85;5.97;;;7.70;70.60;;;;;;2363519;53;20926;-65
2021/05/03 03:42:27;;;;;;;8.55;5.80;;;7.70;70.60;;;;;;2369792;53;21572;-67
2021/05/03 03:44:54;;;;;;;8.80;5.68;;;7.60;70.60;;;;;;2346369;53;20986;-68
2021/05/03 03:47:20;;;;;;;8.88;5.68;;;7.70;70.70;;;;;;2572587;52;21002;-66
2021/05/03 03:50:07;;;;;;;10.32;6.35;;;7.60;70.60;;;;;;2370214;53;21001;-65
2021/05/03 03:52:33;;;;;;;7.62;5.12;;;7.70;70.50;;;;;;2342312;54;20952;-65
2021/05/03 03:55:37;;;;;;;8.75;5.70;;;7.60;70.60;;;;;;2588536;52;20965;-68
2021/05/03 03:58:03;;;;;;;9.02;5.68;;;7.60;70.50;;;;;;2358009;54;20946;-66
2021/05/03 04:00:29;;;;;;;8.27;5.50;;;7.60;70.70;;;;;;2624733;52;20930;-66
2021/05/03 04:02:57;;;;;;;8.23;5.57;;;7.60;70.70;;;;;;2351420;53;21003;-68
2021/05/03 04:05:33;;;;;;;8.98;5.78;;;7.60;70.80;;;;;;2349972;53;20937;-65
2021/05/03 04:08:15;;;;;;;9.05;6.05;;;7.60;71.10;;;;;;2370171;53;20941;-66
2021/05/03 04:24:09;;;;;;;8.30;5.47;;;7.60;71.00;;;;;;2369703;53;21002;-68
2021/05/03 04:26:35;;;;;;;8.57;5.75;;;7.50;71.00;;;;;;2350570;53;20938;-67
2021/05/03 04:29:02;;;;;;;9.32;5.62;;;7.50;71.10;;;;;;2369683;53;20986;-67
2021/05/03 04:31:28;;;;;;;7.70;4.95;;;7.50;71.10;;;;;;2622107;52;21582;-67
2021/05/03 04:33:54;;;;;;;9.32;5.55;;;7.50;71.20;;;;;;2365406;53;21011;-67
2021/05/03 04:36:23;;;;;;;8.38;5.45;;;7.60;71.40;;;;;;2345685;53;21595;-67
2021/05/03 04:38:51;;;;;;;9.60;6.40;;;7.60;71.40;;;;;;2361205;53;20929;-66
2021/05/03 04:41:18;;;;;;;9.93;5.55;;;7.60;71.40;;;;;;2370122;53;20922;-68
2021/05/03 04:43:44;;;;;;;9.68;5.60;;;7.60;71.40;;;;;;2370018;53;20981;-67
2021/05/03 04:46:10;;;;;;;9.43;5.10;;;7.60;71.50;;;;;;2369778;53;20958;-67
2021/05/03 04:48:36;;;;;;;7.87;5.30;;;7.60;71.50;;;;;;2351506;53;20926;-66
2021/05/03 04:51:03;;;;;;;9.18;5.97;;;7.60;71.50;;;;;;2575035;52;21007;-69
2021/05/03 04:53:31;;;;;;;8.98;5.78;;;7.60;71.50;;;;;;2369116;53;21017;-67
2021/05/03 04:55:59;;;;;;;9.68;6.47;;;7.70;71.60;;;;;;2369259;53;21756;-67
2021/05/03 04:58:26;;;;;;;9.20;5.53;;;7.70;71.70;;;;;;2369584;53;20938;-68
2021/05/03 05:00:52;;;;;;;7.25;5.22;;;7.70;71.70;;;;;;2350037;53;20983;-66
2021/05/03 05:03:18;;;;;;;9.48;6.12;;;7.70;71.70;;;;;;2372157;53;20929;-67
2021/05/03 05:05:47;;;;;;;8.85;5.87;;;7.70;71.70;;;;;;2345913;53;21048;-67
2021/05/03 05:08:13;;;;;;;8.45;5.40;;;7.70;71.70;;;;;;2591114;52;20991;-66
2021/05/03 05:10:39;;;;;;;9.45;5.90;;;7.70;71.80;;;;;;2349953;53;20982;-65
2021/05/03 05:13:05;;;;;;;10.23;6.25;;;7.80;71.90;;;;;;2369956;53;20934;-68
2021/05/03 05:15:31;;;;;;;9.15;6.03;;;7.80;72.00;;;;;;2349293;53;21518;-67
2021/05/03 05:17:58;;;;;;;10.05;7.03;;;7.80;72.10;;;;;;2369792;53;21010;-66
2021/05/03 05:20:24;;;;;;;11.98;7.18;;;7.80;72.20;;;;;;2371950;53;20942;-65
2021/05/03 05:22:53;;;;;;;9.10;6.35;;;7.90;72.20;;;;;;2349711;53;20954;-69
2021/05/03 05:25:21;;;;;;;12.30;6.82;;;7.90;72.20;;;;;;2447042;53;20967;-68
2021/05/03 05:27:47;;;;;;;9.15;6.20;;;7.90;72.30;;;;;;2602373;52;20954;-68
2021/05/03 05:30:14;;;;;;;10.45;6.57;;;7.90;72.40;;;;;;2370520;53;21700;-67
2021/05/03 05:32:41;;;;;;;12.23;7.10;;;8.00;72.60;;;;;;2587620;53;20956;-69
2021/05/03 05:35:09;;;;;;;10.23;6.45;;;8.00;72.60;;;;;;2343044;54;20999;-68
2021/05/03 05:37:35;;;;;;;10.95;7.00;;;8.00;72.70;;;;;;2583012;53;21578;-67
2021/05/03 05:40:04;;;;;;;10.45;7.57;;;8.10;72.90;;;;;;2319217;54;21483;-68
2021/05/03 05:42:30;;;;;;;8.43;6.00;;;8.20;73.00;;;;;;2344107;54;20939;-67
2021/05/03 05:44:56;;;;;;;10.20;6.65;;;8.20;73.00;;;;;;2343212;53;20927;-68
2021/05/03 05:47:23;;;;;;;9.18;6.10;;;8.20;73.00;;;;;;2558265;53;21707;-65
2021/05/03 05:49:49;;;;;;;7.62;5.35;;;8.30;73.10;;;;;;2588572;52;20929;-65
2021/05/03 05:52:16;;;;;;;8.02;5.57;;;8.30;73.10;;;;;;2342194;54;20953;-67
2021/05/03 05:54:42;;;;;;;8.43;5.72;;;8.30;73.10;;;;;;2319081;54;21027;-69
2021/05/03 05:57:09;;;;;;;7.40;5.28;;;8.40;73.20;;;;;;2342391;54;20909;-67
2021/05/03 05:59:35;;;;;;;7.72;5.32;;;8.50;73.40;;;;;;2341094;54;20997;-68
2021/05/03 06:02:02;;;;;;;7.53;5.15;;;8.50;73.50;;;;;;2315626;54;21010;-67
2021/05/03 06:04:28;;;;;;;7.85;5.30;;;8.60;73.70;;;;;;2346416;53;20939;-68
2021/05/03 06:06:55;;;;;;;7.35;4.72;;;8.60;73.80;;;;;;2341980;53;20964;-66
2021/05/03 06:09:22;;;;;;;8.75;5.55;;;8.70;73.90;;;;;;2344934;53;21019;-67
2021/05/03 06:11:49;;;;;;;8.88;5.62;;;8.80;74.00;;;;;;2574128;52;20922;-68
2021/05/03 06:14:15;;;;;;;7.93;5.55;;;8.80;74.00;;;;;;2341090;53;20961;-66
2021/05/03 06:16:41;;;;;;;8.32;5.97;;;8.90;74.10;;;;;;2343463;53;20972;-68
2021/05/03 06:19:07;;;;;;;9.15;5.57;;;9.00;74.30;;;;;;2342473;53;20990;-67
2021/05/03 06:21:33;;;;;;;7.95;5.87;;;9.00;74.30;;;;;;2333742;55;21254;-66
2021/05/03 06:24:00;;;;;;;9.60;6.20;;;9.10;74.50;;;;;;2328347;54;20996;-66
2021/05/03 06:26:26;;;;;;;9.90;7.00;;;9.20;74.70;;;;;;2340839;54;21488;-68
2021/05/03 06:28:53;;;;;;;11.00;7.00;;;9.30;74.80;;;;;;2324731;53;21726;-66
2021/05/03 06:31:20;;;;;;;9.88;7.60;;;9.40;75.00;;;;;;2345619;53;20914;-69
2021/05/03 06:33:49;;;;;;;10.55;7.45;;;9.40;75.10;;;;;;2326221;53;20985;-66
2021/05/03 06:36:15;;;;;;;11.18;8.13;;;9.50;75.30;;;;;;2581883;53;20933;-67
2021/05/03 06:38:42;;;;;;;10.35;7.70;;;9.60;75.60;;;;;;2546058;53;21438;-67
2021/05/03 06:41:08;;;;;;;10.30;7.95;;;9.70;75.80;;;;;;2323298;53;20898;-68
2021/05/03 06:43:34;;;;;;;9.48;7.00;;;9.80;76.10;;;;;;2339716;53;21479;-66
2021/05/03 06:46:01;;;;;;;8.98;6.93;;;9.90;76.30;;;;;;2367745;53;20965;-69
2021/05/03 06:48:30;;;;;;;9.77;7.10;;;10.00;75.30;;;;;;2335330;53;21017;-68
2021/05/03 06:50:56;;;;;;;10.13;7.65;;;10.10;75.40;;;;;;2603028;52;20991;-68
2021/05/03 06:53:24;;;;;;;9.85;7.62;;;10.30;76.20;;;;;;2360171;53;20981;-69
2021/05/03 06:55:50;;;;;;;9.20;7.32;;;10.40;75.80;;;;;;2590415;52;21061;-67
2021/05/03 06:58:16;;;;;;;9.85;7.22;;;10.50;76.30;;;;;;2369667;53;20961;-69
2021/05/03 07:00:43;;;;;;;11.50;8.65;;;10.70;77.90;;;;;;2329405;54;20948;-66
2021/05/03 07:03:11;;;;;;;15.77;11.43;;;11.00;80.10;;;;;;2370843;53;20972;-68
2021/05/03 07:05:38;;;;;;;15.65;11.68;;;11.30;81.50;;;;;;2588773;52;20956;-70
2021/05/03 07:08:04;;;;;;;12.35;9.90;;;11.70;83.20;;;;;;2316604;54;20935;-67
2021/05/03 07:10:31;;;;;;;12.35;10.88;;;12.10;84.60;;;;;;2369128;53;21467;-68
2021/05/03 07:12:59;;;;;;;13.05;10.18;;;12.60;85.00;;;;;;2332339;54;21028;-65
2021/05/03 07:15:25;;;;;;;12.05;9.68;;;13.10;85.10;;;;;;2369022;53;21005;-68
2021/05/03 07:17:53;;;;;;;9.50;8.50;;;13.60;85.60;;;;;;2338470;53;21092;-67
2021/05/03 07:20:20;;;;;;;10.50;8.95;;;14.10;86.40;;;;;;2354582;53;21042;-68
2021/05/03 07:22:46;;;;;;;9.57;7.45;;;14.60;86.30;;;;;;2351226;53;20950;-67
2021/05/03 07:25:12;;;;;;;7.47;6.37;;;15.10;86.50;;;;;;2370384;53;20941;-69
2021/05/03 07:27:39;;;;;;;7.12;6.43;;;15.70;86.80;;;;;;2361642;53;21018;-66
2021/05/03 07:30:07;;;;;;;16.50;9.07;;;16.20;85.80;;;;;;2342580;53;20966;-67
2021/05/03 07:32:33;;;;;;;10.63;7.00;;;16.70;84.50;;;;;;2369863;53;20994;-69
2021/05/03 07:35:00;;;;;;;8.43;6.28;;;17.10;83.20;;;;;;2365630;53;20945;-69
2021/05/03 07:37:27;;;;;;;8.68;5.53;;;17.40;81.50;;;;;;2369742;53;21635;-69
2021/05/03 07:39:53;;;;;;;7.18;5.05;;;17.70;80.50;;;;;;2370197;53;20985;-70
2021/05/03 07:42:25;;;;;;;6.03;4.95;;;18.00;80.40;;;;;;2370244;53;20965;-69
2021/05/03 07:45:04;;;;;;;6.75;5.03;;;18.30;79.20;;;;;;2370225;53;20937;-69
2021/05/03 07:47:31;;;;;;;6.28;4.97;;;18.50;78.00;;;;;;2349237;53;1295308;-69
2021/05/03 07:49:58;;;;;;;7.28;5.78;;;18.70;76.80;;;;;;2370318;53;20938;-68
2021/05/03 07:52:27;;;;;;;5.75;4.68;;;18.90;75.50;;;;;;2354637;53;20987;-67
2021/05/03 07:54:53;;;;;;;9.32;7.05;;;19.00;75.20;;;;;;2349943;54;20985;-70
2021/05/03 07:57:19;;;;;;;8.25;7.05;;;19.10;71.30;;;;;;2351675;53;21397;-68
2021/05/03 07:59:46;;;;;;;7.60;6.12;;;19.00;69.30;;;;;;2368656;53;21613;-70
2021/05/03 08:02:12;;;;;;;8.10;6.07;;;19.00;70.10;;;;;;2597471;52;21655;-66
2021/05/03 08:04:39;;;;;;;6.07;5.07;;;18.80;69.50;;;;;;2366924;53;20962;-66
2021/05/03 08:07:05;;;;;;;6.70;5.50;;;18.70;69.90;;;;;;2369786;53;20945;-66
2021/05/03 08:09:31;;;;;;;7.15;5.87;;;18.60;71.00;;;;;;2355958;53;20992;-68
2021/05/03 08:11:58;;;;;;;7.55;5.82;;;18.40;70.70;;;;;;2353900;53;21089;-67
2021/05/03 08:14:24;;;;;;;8.90;6.82;;;18.40;70.40;;;;;;2348682;53;21037;-69
2021/05/03 08:16:56;;;;;;;8.48;6.53;;;18.30;70.70;;;;;;2366566;53;20986;-68
2021/05/03 08:19:22;;;;;;;8.95;6.80;;;18.20;70.30;;;;;;2370984;53;21394;-68
2021/05/03 08:21:55;;;;;;;7.97;6.40;;;18.10;70.70;;;;;;2365786;53;21588;-67
2021/05/03 08:24:21;;;;;;;8.65;5.50;;;18.00;71.30;;;;;;2499238;52;20945;-70
2021/05/03 08:26:47;;;;;;;7.87;5.82;;;17.90;71.00;;;;;;2354272;53;20960;-66
2021/05/03 08:29:16;;;;;;;7.72;5.35;;;17.90;71.00;;;;;;2348039;53;21039;-67
2021/05/03 08:31:43;;;;;;;6.95;5.53;;;17.80;71.20;;;;;;2354521;53;21005;-67
2021/05/03 08:34:10;;;;;;;6.60;5.70;;;17.80;71.40;;;;;;2369991;53;21447;-68
2021/05/03 08:36:36;;;;;;;7.50;6.05;;;17.80;71.80;;;;;;2573564;52;21495;-68
2021/05/03 08:39:06;;;;;;;7.78;6.15;;;17.70;72.10;;;;;;2345033;54;21498;-67
2021/05/03 08:41:34;;;;;;;9.15;6.62;;;17.80;71.80;;;;;;2622079;52;20941;-67
2021/05/03 08:44:00;;;;;;;9.25;5.70;;;17.80;72.70;;;;;;2331376;54;20955;-68
2021/05/03 08:46:31;;;;;;;9.93;6.37;;;17.80;73.30;;;;;;2368882;53;21001;-67
2021/05/03 08:49:04;;;;;;;7.87;6.45;;;17.80;72.80;;;;;;2349298;53;21839;-66
2021/05/03 08:51:45;;;;;;;7.40;5.62;;;17.90;72.00;;;;;;2361072;53;20997;-67
2021/05/03 08:54:30;;;;;;;6.70;5.43;;;17.90;73.90;;;;;;2622870;52;21541;-70
2021/05/03 08:56:57;;;;;;;6.37;5.43;;;18.10;74.80;;;;;;2372617;52;20926;-68
2021/05/03 08:59:23;;;;;;;6.55;5.53;;;18.30;76.10;;;;;;2350519;53;20913;-68
2021/05/03 09:01:50;;;;;;;6.20;5.15;;;18.40;76.30;;;;;;2422052;52;20940;-68
2021/05/03 09:04:16;;;;;;;6.85;5.72;;;18.60;76.70;;;;;;2364496;53;20967;-69
2021/05/03 09:07:19;;;;;;;6.97;5.50;;;18.90;77.20;;;;;;2353781;53;20953;-69
2021/05/03 09:09:47;;;;;;;7.28;5.00;;;19.10;74.00;;;;;;2369911;53;20950;-69
2021/05/03 09:12:24;;;;;;;5.78;4.82;;;19.40;77.80;;;;;;2614725;52;20977;-70
2021/05/03 09:14:54;;;;;;;5.53;4.68;;;19.70;74.40;;;;;;2370062;53;20954;-68
2021/05/03 09:17:31;;;;;;;6.20;4.93;;;20.00;76.90;;;;;;2370989;53;21781;-68
2021/05/03 09:20:05;;;;;;;5.75;4.87;;;20.40;77.20;;;;;;2349637;53;21004;-67
2021/05/03 09:22:43;;;;;;;5.85;4.40;;;20.60;74.10;;;;;;2369972;53;20953;-68
2021/05/03 09:26:14;;;;;;;6.18;4.35;;;20.70;72.10;;;;;;2616810;52;21053;-67
2021/05/03 09:28:40;;;;;;;5.90;4.70;;;20.80;71.80;;;;;;2622213;52;20942;-70
2021/05/03 09:31:07;;;;;;;6.55;4.37;;;20.80;70.60;;;;;;2370115;53;20970;-68
2021/05/03 09:33:41;;;;;;;5.62;4.35;;;20.70;70.30;;;;;;2370223;53;20954;-67
2021/05/03 09:36:09;;;;;;;6.25;4.85;;;20.70;70.30;;;;;;2622293;52;20938;-69
2021/05/03 09:38:48;;;;;;;5.55;4.45;;;20.60;66.40;;;;;;2623004;52;21077;-66
2021/05/03 09:41:26;;;;;;;6.45;4.35;;;20.40;65.40;;;;;;2371687;53;20950;-67
2021/05/03 09:43:54;;;;;;;6.12;3.60;;;20.40;66.20;;;;;;2363121;53;21463;-67
2021/05/03 09:46:37;;;;;;;4.62;3.55;;;20.30;69.90;;;;;;2338515;53;20934;-69
2021/05/03 09:49:11;;;;;;;5.03;3.30;;;20.30;68.60;;;;;;2370088;53;21466;-71
2021/05/03 09:51:57;;;;;;;5.55;4.00;;;20.30;71.90;;;;;;2455893;52;21548;-67
2021/05/03 09:54:30;;;;;;;4.62;3.80;;;20.60;71.40;;;;;;2363614;53;21039;-71
2021/05/03 09:57:10;;;;;;;6.35;4.32;;;20.70;73.50;;;;;;2336641;54;20928;-70
2021/05/03 09:59:49;;;;;;;5.45;3.60;;;20.90;71.30;;;;;;2620911;52;20954;-66
2021/05/03 10:02:26;;;;;;;4.28;3.20;;;21.10;69.50;;;;;;2370112;53;21033;-68
2021/05/03 10:05:20;;;;;;;4.95;3.15;;;21.20;70.80;;;;;;2342554;53;21766;-69
2021/05/03 10:07:54;;;;;;;6.53;3.87;;;21.30;69.60;;;;;;2342223;53;20930;-69
2021/05/03 10:10:23;;;;;;;5.80;4.15;;;21.40;70.80;;;;;;2344288;53;21512;-69
2021/05/03 10:12:50;;;;;;;5.72;3.92;;;21.40;69.30;;;;;;2586245;52;20954;-68
2021/05/03 10:15:19;;;;;;;4.35;3.50;;;21.30;69.10;;;;;;2350317;54;20954;-68
2021/05/03 10:17:45;;;;;;;5.57;3.35;;;21.30;70.10;;;;;;2370319;53;21011;-68
2021/05/03 10:20:13;;;;;;;4.00;2.78;;;21.30;70.20;;;;;;2370537;53;21046;-69
2021/05/03 10:22:39;;;;;;;4.40;3.40;;;21.30;70.00;;;;;;2370398;53;20990;-70
2021/05/03 10:25:10;;;;;;;4.05;3.08;;;21.40;70.00;;;;;;2623165;52;20989;-69
2021/05/03 10:27:42;;;;;;;3.80;2.62;;;21.40;69.30;;;;;;2554668;52;21430;-68
2021/05/03 10:30:43;;;;;;;4.10;3.05;;;21.50;68.60;;;;;;2622564;52;20922;-68
2021/05/03 10:33:11;;;;;;;4.30;3.10;;;21.50;69.90;;;;;;2621665;52;20930;-67
2021/05/03 10:35:58;;;;;;;4.70;3.30;;;21.50;69.30;;;;;;2370102;53;20953;-70
2021/05/03 10:38:42;;;;;;;5.03;3.10;;;21.50;65.70;;;;;;2372267;53;21029;-68
2021/05/03 10:42:11;;;;;;;4.20;3.03;;;21.50;66.50;;;;;;2354712;53;21769;-69
2021/05/03 10:44:41;;;;;;;4.00;2.90;;;21.50;63.50;;;;;;2360265;53;21955;-69
2021/05/03 10:47:34;;;;;;;3.90;2.58;;;21.40;69.50;;;;;;2369880;53;20974;-68
2021/05/03 10:50:00;;;;;;;4.87;3.50;;;21.40;65.20;;;;;;2370217;53;20973;-68
2021/05/03 10:52:33;;;;;;;5.72;3.22;;;21.40;67.40;;;;;;2370173;53;20986;-71
2021/05/03 10:54:59;;;;;;;5.03;3.62;;;21.40;64.50;;;;;;2369830;53;20925;-67
2021/05/03 10:57:31;;;;;;;3.83;2.80;;;21.30;67.20;;;;;;2369723;53;20973;-68
2021/05/03 10:59:59;;;;;;;3.62;2.58;;;21.30;67.20;;;;;;2370438;53;20946;-68
2021/05/03 11:02:26;;;;;;;3.83;2.78;;;21.30;68.80;;;;;;2370309;53;21450;-68
2021/05/03 11:05:53;;;;;;;3.92;2.50;;;21.30;69.20;;;;;;2396121;52;21471;-68
2021/05/03 11:08:19;;;;;;;3.87;2.78;;;21.40;65.90;;;;;;2370483;53;21498;-69
2021/05/03 11:11:03;;;;;;;4.43;2.85;;;21.50;71.80;;;;;;2350698;53;20996;-67
2021/05/03 11:13:50;;;;;;;4.97;2.65;;;21.70;68.40;;;;;;2367758;53;21005;-69
2021/05/03 11:17:18;;;;;;;3.60;2.67;;;21.90;66.60;;;;;;2370224;53;21529;-68
2021/05/03 11:20:19;;;;;;;5.28;2.80;;;22.00;64.50;;;;;;2369974;53;21748;-68
2021/05/03 11:23:07;;;;;;;5.72;3.42;;;22.10;66.70;;;;;;2366861;53;21029;-68
2021/05/03 11:25:34;;;;;;;4.68;3.12;;;22.20;65.40;;;;;;2454740;52;21716;-69
2021/05/03 11:28:06;;;;;;;4.80;2.87;;;22.20;66.70;;;;;;2370074;53;20969;-71
2021/05/03 11:30:45;;;;;;;5.32;3.17;;;22.30;68.30;;;;;;2370663;53;20954;-68
2021/05/03 11:33:16;;;;;;;5.10;3.58;;;22.40;64.60;;;;;;2370496;53;21056;-68
2021/05/03 11:36:01;;;;;;;6.82;3.30;;;22.40;61.70;;;;;;2351077;53;20984;-69
2021/05/03 11:39:47;;;;;;;4.28;3.15;;;22.40;62.30;;;;;;2370475;53;21026;-68
2021/05/03 11:47:41;;;;;;;4.07;2.42;;;22.20;63.40;;;;;;2436720;52;20958;-68
2021/05/03 11:50:08;;;;;;;3.75;2.42;;;22.00;59.10;;;;;;2376596;52;20974;-67
2021/05/03 11:52:38;;;;;;;3.65;2.70;;;21.80;61.60;;;;;;2369859;53;20986;-70
2021/05/03 11:55:11;;;;;;;3.62;2.45;;;21.60;60.30;;;;;;2369730;53;21034;-66
2021/05/03 11:57:40;;;;;;;4.37;2.97;;;21.30;60.40;;;;;;2370181;53;20954;-69
2021/05/03 12:00:07;;;;;;;4.25;2.78;;;21.10;59.60;;;;;;2622073;52;20953;-68
2021/05/03 12:02:34;;;;;;;6.90;3.45;;;20.80;59.50;;;;;;2352450;53;20943;-66
2021/05/03 12:05:01;;;;;;;4.05;2.40;;;20.60;58.70;;;;;;2334632;54;20936;-70
2021/05/03 12:07:32;;;;;;;6.15;3.40;;;20.50;60.40;;;;;;2364514;53;20929;-66
2021/05/03 12:10:15;;;;;;;4.90;2.80;;;20.50;60.30;;;;;;2371042;53;20942;-69
2021/05/03 12:12:54;;;;;;;3.75;2.60;;;20.60;62.20;;;;;;2369369;53;20922;-67
2021/05/03 12:15:27;;;;;;;5.53;2.78;;;20.70;64.90;;;;;;2622719;52;20988;-69
2021/05/03 12:17:54;;;;;;;3.45;2.37;;;20.80;64.40;;;;;;2351607;53;20985;-68
2021/05/03 12:20:24;;;;;;;3.60;2.67;;;20.90;65.00;;;;;;2349480;53;21021;-68
2021/05/03 12:22:57;;;;;;;5.65;3.53;;;21.00;64.10;;;;;;2370368;53;21534;-68
2021/05/03 12:25:27;;;;;;;6.07;3.67;;;21.10;62.80;;;;;;2369739;53;20938;-68
2021/05/03 12:27:53;;;;;;;5.40;3.83;;;21.20;62.50;;;;;;2369992;53;20933;-68
2021/05/03 12:30:19;;;;;;;4.95;3.55;;;21.30;60.30;;;;;;2370406;53;21596;-65
2021/05/03 12:32:46;;;;;;;4.35;2.58;;;21.30;62.50;;;;;;2364744;53;20983;-67
2021/05/03 12:35:13;;;;;;;4.30;3.37;;;21.40;62.90;;;;;;2338588;53;21646;-68
2021/05/03 12:37:40;;;;;;;5.03;2.80;;;21.50;63.50;;;;;;2348702;54;20993;-66
2021/05/03 12:40:17;;;;;;;5.15;3.37;;;21.60;64.80;;;;;;2474594;52;20935;-66
2021/05/03 12:42:52;;;;;;;4.82;3.10;;;21.70;61.90;;;;;;2359134;54;20958;-69
2021/05/03 12:45:32;;;;;;;5.30;2.78;;;21.80;61.50;;;;;;2371241;53;21073;-69
2021/05/03 12:48:12;;;;;;;4.25;2.97;;;21.90;59.30;;;;;;2329810;54;20935;-67
2021/05/03 12:57:57;;;;;;;5.18;2.67;;;22.00;60.90;;;;;;2620759;52;20942;-69
2021/05/03 13:00:27;;;;;;;3.58;2.40;;;22.00;62.10;;;;;;2346494;53;20937;-68
2021/05/03 13:03:13;;;;;;;4.30;2.40;;;22.00;62.40;;;;;;2558337;52;21581;-68
2021/05/03 13:05:50;;;;;;;4.65;2.22;;;22.10;59.80;;;;;;2370182;53;21069;-67
2021/05/03 13:22:31;;;;;;;4.72;2.65;;;22.00;58.60;;;;;;2544714;52;20908;-68
2021/05/03 13:25:33;;;;;;;4.22;2.72;;;22.00;60.80;;;;;;2363885;53;20961;-69
2021/05/03 13:28:09;;;;;;;3.70;2.45;;;21.60;57.60;;;;;;2369504;53;20934;-70
2021/05/03 13:30:37;;;;;;;4.78;2.70;;;21.60;60.10;;;;;;2320547;54;20951;-69
2021/05/03 13:33:05;;;;;;;4.25;2.50;;;21.60;59.90;;;;;;2554633;53;21020;-69
2021/05/03 13:35:32;;;;;;;3.78;2.58;;;21.60;60.70;;;;;;2337616;53;21479;-70
2021/05/03 13:37:59;;;;;;;4.45;2.70;;;21.60;60.00;;;;;;2345732;53;20983;-71
2021/05/03 13:40:25;;;;;;;4.15;2.80;;;21.50;59.20;;;;;;2367957;53;20946;-69
2021/05/03 13:42:55;;;;;;;4.07;2.97;;;21.50;57.90;;;;;;2369921;53;20969;-69
2021/05/03 13:45:22;;;;;;;4.32;2.85;;;21.40;57.40;;;;;;2467297;52;21113;-70
2021/05/03 13:47:51;;;;;;;4.12;2.70;;;21.20;57.10;;;;;;2369632;53;20938;-68
2021/05/03 13:50:17;;;;;;;4.22;2.30;;;21.10;56.10;;;;;;2369092;53;20937;-68